Terminal Aerodrome Forecast
Issued by NWS

Home | Current Version | Previous Version | Text Only | Print | Product List | Glossary On
Versions: 1 2 3 4 5 6 7 8 9 10 11 12 13 14 15 16 17 18
053
FTUS43 KMPX 260702 AAA
TAFAXN
TAF AMD
KAXN 260702Z 2607/2706 10008KT P6SM OVC015
     FM261000 09006KT P6SM OVC008
     FM261800 04006KT P6SM OVC012
     FM262100 02005KT P6SM OVC020
     FM270000 35005KT P6SM BKN030=

USA.gov is the U.S. government's official web portal to all federal, state and local government web resources and services.